Athens, Greece
Current Conditions -  °F | °C
As of 12:50 PM on Monday 20 Oct 2014 (Local Time) from LGEL Reporting Station
Few Clouds Few Clouds  
Wind Chill: 72°   Ceiling: Unl
Heat Index: 72°   Visibility: 6mi
Dew Point: 46°   Wind: 12mph
Humidity: 41%   Direction: 350°N
Pressure: 30.18"   Gusts: NA
Location:  37.98°N, 23.73°E
Report Text: LGEL 200950Z 35010KT 9999 FEW025 22/08 Q1022
Loading
Personal Weather Stations






























Interactive Weather Map
Tropical Storm Tracking
New forecast layout! Learn more

10-Day Weather Forecast

Advertisements
Track Severe Weather on mobile